sensor_id;sensor_type;location;lat;lon;timestamp;pressure;altitude;pressure_sealevel;temperature;humidity
75740;BME280;64357;51.344;6.550;2023-05-16T00:00:30;101216.41;;;9.79;100.00
75740;BME280;64357;51.344;6.550;2023-05-16T00:03:03;101216.56;;;9.65;100.00
75740;BME280;64357;51.344;6.550;2023-05-16T00:05:28;101223.88;;;9.62;100.00
75740;BME280;64357;51.344;6.550;2023-05-16T00:07:54;101224.34;;;9.51;100.00
75740;BME280;64357;51.344;6.550;2023-05-16T00:10:19;101228.78;;;9.45;100.00
75740;BME280;64357;51.344;6.550;2023-05-16T00:12:45;101225.78;;;9.33;100.00
75740;BME280;64357;51.344;6.550;2023-05-16T00:15:14;101222.38;;;9.25;100.00
75740;BME280;64357;51.344;6.550;2023-05-16T00:17:39;101228.81;;;9.38;100.00
75740;BME280;64357;51.344;6.550;2023-05-16T00:20:05;101235.09;;;9.32;100.00
75740;BME280;64357;51.344;6.550;2023-05-16T00:22:35;101226.94;;;9.28;100.00
75740;BME280;64357;51.344;6.550;2023-05-16T00:25:01;101238.03;;;9.28;100.00
75740;BME280;64357;51.344;6.550;2023-05-16T00:27:27;101231.44;;;9.30;100.00
75740;BME280;64357;51.344;6.550;2023-05-16T00:29:55;101240.00;;;9.31;100.00
75740;BME280;64357;51.344;6.550;2023-05-16T00:32:23;101240.56;;;9.28;100.00
75740;BME280;64357;51.344;6.550;2023-05-16T00:34:51;101245.59;;;9.35;100.00
75740;BME280;64357;51.344;6.550;2023-05-16T00:37:16;101241.25;;;9.34;100.00
75740;BME280;64357;51.344;6.550;2023-05-16T00:39:46;101241.94;;;9.41;100.00
75740;BME280;64357;51.344;6.550;2023-05-16T00:42:12;101233.22;;;9.39;100.00
75740;BME280;64357;51.344;6.550;2023-05-16T00:44:39;101232.63;;;9.41;100.00
75740;BME280;64357;51.344;6.550;2023-05-16T00:47:07;101234.00;;;9.30;100.00
75740;BME280;64357;51.344;6.550;2023-05-16T00:49:33;101236.66;;;9.39;100.00
75740;BME280;64357;51.344;6.550;2023-05-16T00:51:58;101242.31;;;9.37;100.00
75740;BME280;64357;51.344;6.550;2023-05-16T00:54:25;101241.41;;;9.36;100.00
75740;BME280;64357;51.344;6.550;2023-05-16T00:56:51;101242.22;;;9.28;100.00
75740;BME280;64357;51.344;6.550;2023-05-16T00:59:19;101233.91;;;9.38;100.00
75740;BME280;64357;51.344;6.550;2023-05-16T01:01:45;101234.00;;;9.30;100.00
75740;BME280;64357;51.344;6.550;2023-05-16T01:04:13;101248.31;;;9.37;100.00
75740;BME280;64357;51.344;6.550;2023-05-16T01:06:41;101245.91;;;9.23;100.00
75740;BME280;64357;51.344;6.550;2023-05-16T01:09:06;101252.06;;;9.25;100.00
75740;BME280;64357;51.344;6.550;2023-05-16T01:11:37;101254.53;;;9.32;100.00
75740;BME280;64357;51.344;6.550;2023-05-16T01:27:47;101262.06;;;9.00;100.00
75740;BME280;64357;51.344;6.550;2023-05-16T01:30:17;101271.16;;;9.05;100.00
75740;BME280;64357;51.344;6.550;2023-05-16T01:32:43;101274.28;;;9.03;100.00
75740;BME280;64357;51.344;6.550;2023-05-16T01:35:11;101266.28;;;9.00;100.00
75740;BME280;64357;51.344;6.550;2023-05-16T01:40:39;101273.19;;;9.01;100.00
75740;BME280;64357;51.344;6.550;2023-05-16T01:43:13;101284.47;;;9.03;100.00
75740;BME280;64357;51.344;6.550;2023-05-16T01:45:52;101278.84;;;8.98;100.00
75740;BME280;64357;51.344;6.550;2023-05-16T01:48:22;101284.38;;;8.87;100.00
75740;BME280;64357;51.344;6.550;2023-05-16T01:50:53;101283.47;;;8.87;100.00
75740;BME280;64357;51.344;6.550;2023-05-16T01:53:26;101281.63;;;8.93;100.00
75740;BME280;64357;51.344;6.550;2023-05-16T01:55:55;101288.72;;;8.88;100.00
75740;BME280;64357;51.344;6.550;2023-05-16T01:58:24;101295.25;;;8.93;100.00
75740;BME280;64357;51.344;6.550;2023-05-16T02:00:52;101301.56;;;9.04;100.00
75740;BME280;64357;51.344;6.550;2023-05-16T02:03:17;101299.22;;;8.98;100.00
75740;BME280;64357;51.344;6.550;2023-05-16T02:05:43;101309.06;;;8.95;100.00
75740;BME280;64357;51.344;6.550;2023-05-16T02:08:11;101294.41;;;8.78;100.00
75740;BME280;64357;51.344;6.550;2023-05-16T02:10:38;101309.69;;;8.86;100.00
75740;BME280;64357;51.344;6.550;2023-05-16T02:13:05;101311.41;;;9.01;100.00
75740;BME280;64357;51.344;6.550;2023-05-16T02:15:30;101315.81;;;8.95;100.00
75740;BME280;64357;51.344;6.550;2023-05-16T02:17:58;101312.03;;;8.91;100.00
75740;BME280;64357;51.344;6.550;2023-05-16T02:20:24;101324.50;;;8.97;100.00
75740;BME280;64357;51.344;6.550;2023-05-16T02:22:49;101320.34;;;8.97;100.00
75740;BME280;64357;51.344;6.550;2023-05-16T02:25:17;101323.59;;;9.03;100.00
75740;BME280;64357;51.344;6.550;2023-05-16T02:27:47;101315.97;;;8.96;100.00
75740;BME280;64357;51.344;6.550;2023-05-16T02:30:13;101320.91;;;8.95;100.00
75740;BME280;64357;51.344;6.550;2023-05-16T02:32:41;101322.44;;;8.86;100.00
75740;BME280;64357;51.344;6.550;2023-05-16T02:35:09;101330.28;;;8.80;100.00
75740;BME280;64357;51.344;6.550;2023-05-16T02:37:35;101329.16;;;8.78;100.00
75740;BME280;64357;51.344;6.550;2023-05-16T02:40:03;101340.84;;;8.76;100.00
75740;BME280;64357;51.344;6.550;2023-05-16T02:42:32;101344.66;;;8.72;100.00
75740;BME280;64357;51.344;6.550;2023-05-16T02:44:57;101340.31;;;8.71;100.00
75740;BME280;64357;51.344;6.550;2023-05-16T02:47:23;101342.13;;;8.72;100.00
75740;BME280;64357;51.344;6.550;2023-05-16T02:49:50;101341.03;;;8.70;100.00
75740;BME280;64357;51.344;6.550;2023-05-16T02:52:17;101344.88;;;8.74;100.00
75740;BME280;64357;51.344;6.550;2023-05-16T02:54:42;101353.06;;;8.64;100.00
75740;BME280;64357;51.344;6.550;2023-05-16T02:57:08;101352.53;;;8.60;100.00
75740;BME280;64357;51.344;6.550;2023-05-16T02:59:33;101357.16;;;8.41;100.00
75740;BME280;64357;51.344;6.550;2023-05-16T03:01:59;101373.31;;;8.34;100.00
75740;BME280;64357;51.344;6.550;2023-05-16T03:04:24;101369.69;;;8.25;100.00
75740;BME280;64357;51.344;6.550;2023-05-16T03:06:52;101385.13;;;8.26;100.00
75740;BME280;64357;51.344;6.550;2023-05-16T03:09:17;101381.34;;;8.16;100.00
75740;BME280;64357;51.344;6.550;2023-05-16T03:11:46;101380.06;;;8.19;100.00
75740;BME280;64357;51.344;6.550;2023-05-16T03:14:14;101380.78;;;8.18;100.00
75740;BME280;64357;51.344;6.550;2023-05-16T03:16:39;101381.16;;;8.14;100.00
75740;BME280;64357;51.344;6.550;2023-05-16T03:19:09;101388.09;;;8.01;100.00
75740;BME280;64357;51.344;6.550;2023-05-16T03:21:35;101379.91;;;7.96;100.00
75740;BME280;64357;51.344;6.550;2023-05-16T03:24:04;101390.97;;;7.97;100.00
75740;BME280;64357;51.344;6.550;2023-05-16T03:26:32;101394.25;;;7.96;100.00
75740;BME280;64357;51.344;6.550;2023-05-16T03:28:58;101387.53;;;7.89;100.00
75740;BME280;64357;51.344;6.550;2023-05-16T03:31:28;101398.63;;;7.90;100.00
75740;BME280;64357;51.344;6.550;2023-05-16T03:33:54;101391.56;;;7.80;100.00
75740;BME280;64357;51.344;6.550;2023-05-16T03:36:22;101383.19;;;7.74;100.00
75740;BME280;64357;51.344;6.550;2023-05-16T03:38:50;101389.72;;;7.72;100.00
75740;BME280;64357;51.344;6.550;2023-05-16T03:41:18;101388.47;;;7.68;100.00
75740;BME280;64357;51.344;6.550;2023-05-16T03:43:46;101396.97;;;7.62;100.00
75740;BME280;64357;51.344;6.550;2023-05-16T03:46:11;101402.78;;;7.61;100.00
75740;BME280;64357;51.344;6.550;2023-05-16T03:48:37;101397.34;;;7.58;100.00
75740;BME280;64357;51.344;6.550;2023-05-16T03:51:02;101404.75;;;7.56;100.00
75740;BME280;64357;51.344;6.550;2023-05-16T03:53:27;101415.50;;;7.61;100.00
75740;BME280;64357;51.344;6.550;2023-05-16T03:55:53;101404.41;;;7.53;100.00
75740;BME280;64357;51.344;6.550;2023-05-16T03:58:18;101406.22;;;7.47;100.00
75740;BME280;64357;51.344;6.550;2023-05-16T04:00:44;101424.00;;;7.47;100.00
75740;BME280;64357;51.344;6.550;2023-05-16T04:03:12;101416.38;;;7.40;100.00
75740;BME280;64357;51.344;6.550;2023-05-16T04:05:38;101418.75;;;7.45;100.00
75740;BME280;64357;51.344;6.550;2023-05-16T04:08:06;101413.84;;;7.40;100.00
75740;BME280;64357;51.344;6.550;2023-05-16T04:10:33;101425.81;;;7.41;100.00
75740;BME280;64357;51.344;6.550;2023-05-16T04:13:01;101431.97;;;7.36;100.00
75740;BME280;64357;51.344;6.550;2023-05-16T04:15:26;101434.53;;;7.36;100.00
75740;BME280;64357;51.344;6.550;2023-05-16T04:17:52;101433.63;;;7.35;100.00
75740;BME280;64357;51.344;6.550;2023-05-16T04:20:17;101445.75;;;7.38;100.00
75740;BME280;64357;51.344;6.550;2023-05-16T04:22:45;101443.03;;;7.36;100.00
75740;BME280;64357;51.344;6.550;2023-05-16T04:25:13;101453.59;;;7.39;100.00
75740;BME280;64357;51.344;6.550;2023-05-16T04:27:41;101453.22;;;7.43;100.00
75740;BME280;64357;51.344;6.550;2023-05-16T04:30:07;101450.91;;;7.45;100.00
75740;BME280;64357;51.344;6.550;2023-05-16T04:32:34;101449.44;;;7.40;100.00
75740;BME280;64357;51.344;6.550;2023-05-16T04:35:01;101452.31;;;7.36;100.00
75740;BME280;64357;51.344;6.550;2023-05-16T04:37:26;101470.13;;;7.43;100.00
75740;BME280;64357;51.344;6.550;2023-05-16T04:39:52;101456.66;;;7.37;100.00
75740;BME280;64357;51.344;6.550;2023-05-16T04:42:18;101457.41;;;7.43;100.00
75740;BME280;64357;51.344;6.550;2023-05-16T04:44:44;101465.22;;;7.44;100.00
75740;BME280;64357;51.344;6.550;2023-05-16T04:47:09;101470.69;;;7.47;100.00
75740;BME280;64357;51.344;6.550;2023-05-16T04:49:35;101479.78;;;7.53;100.00
75740;BME280;64357;51.344;6.550;2023-05-16T04:52:05;101466.34;;;7.54;100.00
75740;BME280;64357;51.344;6.550;2023-05-16T04:54:32;101477.56;;;7.48;100.00
75740;BME280;64357;51.344;6.550;2023-05-16T04:56:58;101482.50;;;7.61;100.00
75740;BME280;64357;51.344;6.550;2023-05-16T04:59:28;101477.06;;;7.58;100.00
75740;BME280;64357;51.344;6.550;2023-05-16T05:01:56;101490.00;;;7.74;100.00
75740;BME280;64357;51.344;6.550;2023-05-16T05:04:21;101482.72;;;7.70;100.00
75740;BME280;64357;51.344;6.550;2023-05-16T05:06:49;101482.16;;;7.65;100.00
75740;BME280;64357;51.344;6.550;2023-05-16T05:09:14;101493.97;;;7.72;100.00
75740;BME280;64357;51.344;6.550;2023-05-16T05:11:40;101494.38;;;7.75;100.00
75740;BME280;64357;51.344;6.550;2023-05-16T05:14:05;101489.47;;;7.77;100.00
75740;BME280;64357;51.344;6.550;2023-05-16T05:16:33;101501.84;;;7.88;100.00
75740;BME280;64357;51.344;6.550;2023-05-16T05:18:59;101500.94;;;7.94;100.00
75740;BME280;64357;51.344;6.550;2023-05-16T05:21:25;101498.56;;;7.96;100.00
75740;BME280;64357;51.344;6.550;2023-05-16T05:23:51;101500.19;;;8.02;100.00
75740;BME280;64357;51.344;6.550;2023-05-16T05:26:17;101491.50;;;8.08;100.00
75740;BME280;64357;51.344;6.550;2023-05-16T05:28:42;101500.75;;;8.14;100.00
75740;BME280;64357;51.344;6.550;2023-05-16T05:31:10;101504.59;;;8.18;100.00
75740;BME280;64357;51.344;6.550;2023-05-16T05:33:36;101502.94;;;8.18;100.00
75740;BME280;64357;51.344;6.550;2023-05-16T05:36:01;101503.50;;;8.16;99.99
75740;BME280;64357;51.344;6.550;2023-05-16T05:38:27;101513.34;;;8.27;99.50
75740;BME280;64357;51.344;6.550;2023-05-16T05:40:52;101503.16;;;8.27;100.00
75740;BME280;64357;51.344;6.550;2023-05-16T05:43:18;101518.25;;;8.47;98.49
75740;BME280;64357;51.344;6.550;2023-05-16T05:45:45;101508.06;;;8.47;98.72
75740;BME280;64357;51.344;6.550;2023-05-16T05:48:11;101521.91;;;8.63;99.07
75740;BME280;64357;51.344;6.550;2023-05-16T05:50:39;101516.63;;;8.69;98.03
75740;BME280;64357;51.344;6.550;2023-05-16T05:53:05;101522.22;;;8.73;97.61
75740;BME280;64357;51.344;6.550;2023-05-16T05:55:30;101522.44;;;8.68;96.73
75740;BME280;64357;51.344;6.550;2023-05-16T05:57:56;101529.13;;;8.89;96.14
75740;BME280;64357;51.344;6.550;2023-05-16T06:00:21;101541.38;;;8.63;95.60
75740;BME280;64357;51.344;6.550;2023-05-16T06:02:49;101530.06;;;8.82;96.24
75740;BME280;64357;51.344;6.550;2023-05-16T06:05:14;101523.81;;;9.01;96.10
75740;BME280;64357;51.344;6.550;2023-05-16T06:07:40;101527.13;;;8.93;94.36
75740;BME280;64357;51.344;6.550;2023-05-16T06:10:06;101532.16;;;9.15;95.62
75740;BME280;64357;51.344;6.550;2023-05-16T06:12:34;101535.44;;;9.21;94.02
75740;BME280;64357;51.344;6.550;2023-05-16T06:15:00;101543.59;;;9.32;94.60
75740;BME280;64357;51.344;6.550;2023-05-16T06:17:25;101537.91;;;9.35;92.90
75740;BME280;64357;51.344;6.550;2023-05-16T06:19:53;101531.53;;;9.31;92.24
75740;BME280;64357;51.344;6.550;2023-05-16T06:22:18;101545.59;;;9.28;92.73
75740;BME280;64357;51.344;6.550;2023-05-16T06:24:44;101549.00;;;9.35;92.05
75740;BME280;64357;51.344;6.550;2023-05-16T06:27:10;101544.78;;;9.43;91.74
75740;BME280;64357;51.344;6.550;2023-05-16T06:29:39;101549.94;;;9.36;90.43
75740;BME280;64357;51.344;6.550;2023-05-16T06:32:05;101541.31;;;9.50;90.49
75740;BME280;64357;51.344;6.550;2023-05-16T06:34:33;101556.38;;;9.63;90.75
75740;BME280;64357;51.344;6.550;2023-05-16T06:36:58;101536.97;;;9.42;89.74
75740;BME280;64357;51.344;6.550;2023-05-16T06:39:27;101563.06;;;9.76;90.37
75740;BME280;64357;51.344;6.550;2023-05-16T06:41:53;101554.53;;;9.69;88.81
75740;BME280;64357;51.344;6.550;2023-05-16T06:44:22;101553.22;;;9.72;87.92
75740;BME280;64357;51.344;6.550;2023-05-16T06:46:47;101559.59;;;9.76;88.34
75740;BME280;64357;51.344;6.550;2023-05-16T06:49:12;101565.78;;;10.08;88.08
75740;BME280;64357;51.344;6.550;2023-05-16T06:51:40;101566.81;;;10.24;87.19
75740;BME280;64357;51.344;6.550;2023-05-16T06:54:05;101568.81;;;10.20;86.21
75740;BME280;64357;51.344;6.550;2023-05-16T06:56:31;101561.31;;;10.28;85.22
75740;BME280;64357;51.344;6.550;2023-05-16T06:58:58;101566.34;;;10.35;84.35
75740;BME280;64357;51.344;6.550;2023-05-16T07:01:25;101569.66;;;10.34;82.74
75740;BME280;64357;51.344;6.550;2023-05-16T07:03:51;101578.47;;;10.52;81.72
75740;BME280;64357;51.344;6.550;2023-05-16T07:06:16;101561.25;;;10.35;79.27
75740;BME280;64357;51.344;6.550;2023-05-16T07:08:41;101562.63;;;10.48;79.35
75740;BME280;64357;51.344;6.550;2023-05-16T07:11:07;101560.94;;;10.32;79.69
75740;BME280;64357;51.344;6.550;2023-05-16T07:13:34;101566.94;;;10.33;77.57
75740;BME280;64357;51.344;6.550;2023-05-16T07:16:04;101562.00;;;10.57;79.50
75740;BME280;64357;51.344;6.550;2023-05-16T07:18:36;101568.19;;;10.59;79.09
75740;BME280;64357;51.344;6.550;2023-05-16T07:21:01;101565.63;;;10.59;78.14
75740;BME280;64357;51.344;6.550;2023-05-16T07:23:30;101559.59;;;10.59;78.84
75740;BME280;64357;51.344;6.550;2023-05-16T07:25:55;101560.06;;;10.71;76.82
75740;BME280;64357;51.344;6.550;2023-05-16T07:28:20;101569.91;;;10.90;77.84
75740;BME280;64357;51.344;6.550;2023-05-16T07:30:48;101571.81;;;11.00;76.97
75740;BME280;64357;51.344;6.550;2023-05-16T07:33:13;101569.09;;;10.99;75.99
75740;BME280;64357;51.344;6.550;2023-05-16T07:35:41;101575.94;;;10.91;76.19
75740;BME280;64357;51.344;6.550;2023-05-16T07:38:06;101579.19;;;11.29;76.36
75740;BME280;64357;51.344;6.550;2023-05-16T07:40:36;101584.69;;;11.72;72.93
75740;BME280;64357;51.344;6.550;2023-05-16T07:43:02;101577.50;;;12.08;70.28
75740;BME280;64357;51.344;6.550;2023-05-16T07:45:29;101579.22;;;11.44;71.35
75740;BME280;64357;51.344;6.550;2023-05-16T07:47:55;101577.78;;;11.87;68.90
75740;BME280;64357;51.344;6.550;2023-05-16T07:50:20;101580.59;;;11.34;70.83
75740;BME280;64357;51.344;6.550;2023-05-16T07:52:45;101581.97;;;10.91;72.01
75740;BME280;64357;51.344;6.550;2023-05-16T07:55:11;101581.22;;;10.92;73.57
75740;BME280;64357;51.344;6.550;2023-05-16T07:57:39;101581.06;;;10.91;71.77
75740;BME280;64357;51.344;6.550;2023-05-16T08:00:07;101580.03;;;11.20;71.60
75740;BME280;64357;51.344;6.550;2023-05-16T08:02:35;101580.03;;;11.20;71.40
75740;BME280;64357;51.344;6.550;2023-05-16T08:05:01;101581.50;;;11.18;72.39
75740;BME280;64357;51.344;6.550;2023-05-16T08:07:26;101572.34;;;11.20;73.16
75740;BME280;64357;51.344;6.550;2023-05-16T08:09:52;101579.41;;;12.26;68.38
75740;BME280;64357;51.344;6.550;2023-05-16T08:12:17;101576.69;;;14.02;62.04
75740;BME280;64357;51.344;6.550;2023-05-16T08:14:47;101580.00;;;14.72;59.80
75740;BME280;64357;51.344;6.550;2023-05-16T08:17:12;101580.09;;;15.10;56.65
75740;BME280;64357;51.344;6.550;2023-05-16T08:19:40;101586.06;;;15.46;54.27
75740;BME280;64357;51.344;6.550;2023-05-16T08:22:08;101578.59;;;15.96;52.64
75740;BME280;64357;51.344;6.550;2023-05-16T08:24:33;101570.72;;;15.76;51.67
75740;BME280;64357;51.344;6.550;2023-05-16T08:27:01;101582.50;;;15.36;52.38
75740;BME280;64357;51.344;6.550;2023-05-16T08:29:27;101574.16;;;15.19;52.42
75740;BME280;64357;51.344;6.550;2023-05-16T08:31:55;101587.81;;;15.84;51.95
75740;BME280;64357;51.344;6.550;2023-05-16T08:34:23;101578.19;;;15.26;50.66
75740;BME280;64357;51.344;6.550;2023-05-16T08:36:48;101573.19;;;15.00;51.28
75740;BME280;64357;51.344;6.550;2023-05-16T08:39:15;101573.16;;;15.09;51.76
75740;BME280;64357;51.344;6.550;2023-05-16T08:41:41;101585.25;;;16.42;50.44
75740;BME280;64357;51.344;6.550;2023-05-16T08:44:07;101573.91;;;16.50;48.70
75740;BME280;64357;51.344;6.550;2023-05-16T08:46:34;101582.88;;;16.35;48.69
75740;BME280;64357;51.344;6.550;2023-05-16T08:49:01;101584.66;;;15.96;50.17
75740;BME280;64357;51.344;6.550;2023-05-16T08:51:31;101566.75;;;14.95;52.13
75740;BME280;64357;51.344;6.550;2023-05-16T08:54:01;101576.44;;;14.44;54.10
75740;BME280;64357;51.344;6.550;2023-05-16T08:56:27;101578.47;;;13.95;56.85
75740;BME280;64357;51.344;6.550;2023-05-16T08:58:56;101583.63;;;13.25;59.34
75740;BME280;64357;51.344;6.550;2023-05-16T09:01:22;101588.28;;;13.29;57.95
75740;BME280;64357;51.344;6.550;2023-05-16T09:03:48;101592.91;;;13.07;60.12
75740;BME280;64357;51.344;6.550;2023-05-16T09:06:16;101584.44;;;12.67;61.29
75740;BME280;64357;51.344;6.550;2023-05-16T09:08:41;101601.34;;;12.40;63.14
75740;BME280;64357;51.344;6.550;2023-05-16T09:11:10;101593.50;;;12.14;64.65
75740;BME280;64357;51.344;6.550;2023-05-16T09:13:38;101587.41;;;12.30;65.88
75740;BME280;64357;51.344;6.550;2023-05-16T09:16:15;101590.84;;;13.29;62.67
75740;BME280;64357;51.344;6.550;2023-05-16T09:18:42;101593.34;;;14.42;58.19
75740;BME280;64357;51.344;6.550;2023-05-16T09:21:09;101583.31;;;15.54;53.70
75740;BME280;64357;51.344;6.550;2023-05-16T09:23:37;101582.03;;;16.94;50.12
75740;BME280;64357;51.344;6.550;2023-05-16T09:26:04;101583.19;;;18.31;47.97
75740;BME280;64357;51.344;6.550;2023-05-16T09:28:32;101582.91;;;18.71;43.85
75740;BME280;64357;51.344;6.550;2023-05-16T09:31:00;101574.31;;;17.55;46.85
75740;BME280;64357;51.344;6.550;2023-05-16T09:33:26;101569.97;;;18.06;44.71
75740;BME280;64357;51.344;6.550;2023-05-16T09:35:59;101561.81;;;18.66;44.58
75740;BME280;64357;51.344;6.550;2023-05-16T09:38:27;101560.09;;;18.77;44.02
75740;BME280;64357;51.344;6.550;2023-05-16T09:40:55;101569.66;;;18.78;41.79
75740;BME280;64357;51.344;6.550;2023-05-16T09:43:25;101560.88;;;19.09;41.04
75740;BME280;64357;51.344;6.550;2023-05-16T09:45:51;101564.91;;;16.55;45.31
75740;BME280;64357;51.344;6.550;2023-05-16T09:48:20;101558.53;;;16.31;47.47
75740;BME280;64357;51.344;6.550;2023-05-16T09:50:47;101562.31;;;15.68;50.20
75740;BME280;64357;51.344;6.550;2023-05-16T09:53:30;101566.97;;;14.79;53.04
75740;BME280;64357;51.344;6.550;2023-05-16T09:56:03;101565.72;;;14.48;53.74
75740;BME280;64357;51.344;6.550;2023-05-16T09:58:35;101568.81;;;14.01;56.22
75740;BME280;64357;51.344;6.550;2023-05-16T10:01:04;101564.44;;;13.82;56.79
75740;BME280;64357;51.344;6.550;2023-05-16T10:03:29;101569.44;;;13.46;57.29
75740;BME280;64357;51.344;6.550;2023-05-16T10:05:55;101571.59;;;15.19;52.54
75740;BME280;64357;51.344;6.550;2023-05-16T10:08:22;101567.69;;;14.33;53.43
75740;BME280;64357;51.344;6.550;2023-05-16T10:10:55;101569.75;;;14.63;54.35
75740;BME280;64357;51.344;6.550;2023-05-16T10:13:22;101572.56;;;14.75;54.67
75740;BME280;64357;51.344;6.550;2023-05-16T10:15:49;101574.25;;;14.04;54.46
75740;BME280;64357;51.344;6.550;2023-05-16T10:18:20;101562.97;;;13.67;56.25
75740;BME280;64357;51.344;6.550;2023-05-16T10:20:48;101576.34;;;13.30;56.26
75740;BME280;64357;51.344;6.550;2023-05-16T10:23:19;101583.00;;;13.37;56.28
75740;BME280;64357;51.344;6.550;2023-05-16T10:25:48;101587.91;;;13.09;56.98
75740;BME280;64357;51.344;6.550;2023-05-16T10:28:17;101590.78;;;13.12;58.04
75740;BME280;64357;51.344;6.550;2023-05-16T10:30:46;101590.25;;;13.32;59.33
75740;BME280;64357;51.344;6.550;2023-05-16T10:33:13;101599.97;;;12.68;63.26
75740;BME280;64357;51.344;6.550;2023-05-16T10:35:40;101606.34;;;11.98;71.55
75740;BME280;64357;51.344;6.550;2023-05-16T10:38:06;101609.06;;;11.84;70.99
75740;BME280;64357;51.344;6.550;2023-05-16T10:40:34;101609.56;;;11.73;70.25
75740;BME280;64357;51.344;6.550;2023-05-16T10:43:02;101600.94;;;11.72;72.35
75740;BME280;64357;51.344;6.550;2023-05-16T10:45:30;101600.72;;;11.94;70.79
75740;BME280;64357;51.344;6.550;2023-05-16T10:47:58;101588.84;;;12.43;69.76
75740;BME280;64357;51.344;6.550;2023-05-16T10:50:41;101583.59;;;12.84;66.46
75740;BME280;64357;51.344;6.550;2023-05-16T10:55:39;101570.50;;;15.17;57.76
75740;BME280;64357;51.344;6.550;2023-05-16T10:58:07;101585.84;;;15.62;55.23
75740;BME280;64357;51.344;6.550;2023-05-16T11:00:32;101569.81;;;17.01;51.30
75740;BME280;64357;51.344;6.550;2023-05-16T11:03:21;101566.03;;;16.09;51.45
75740;BME280;64357;51.344;6.550;2023-05-16T11:05:51;101576.31;;;15.53;54.73
75740;BME280;64357;51.344;6.550;2023-05-16T11:08:18;101572.34;;;14.55;54.84
75740;BME280;64357;51.344;6.550;2023-05-16T11:10:43;101556.34;;;14.49;56.43
75740;BME280;64357;51.344;6.550;2023-05-16T11:13:11;101566.97;;;16.20;51.67
75740;BME280;64357;51.344;6.550;2023-05-16T11:15:37;101566.59;;;16.65;49.21
75740;BME280;64357;51.344;6.550;2023-05-16T11:18:13;101567.63;;;14.96;53.83
75740;BME280;64357;51.344;6.550;2023-05-16T11:20:42;101567.59;;;14.68;56.05
75740;BME280;64357;51.344;6.550;2023-05-16T11:25:40;101572.25;;;15.92;54.33
75740;BME280;64357;51.344;6.550;2023-05-16T11:28:07;101566.97;;;17.49;50.32
75740;BME280;64357;51.344;6.550;2023-05-16T11:30:33;101572.50;;;17.74;48.23
75740;BME280;64357;51.344;6.550;2023-05-16T11:32:58;101574.66;;;18.32;45.36
75740;BME280;64357;51.344;6.550;2023-05-16T11:35:23;101575.84;;;17.53;44.92
75740;BME280;64357;51.344;6.550;2023-05-16T11:37:49;101574.16;;;16.14;48.21
75740;BME280;64357;51.344;6.550;2023-05-16T11:40:17;101572.81;;;14.87;52.75
75740;BME280;64357;51.344;6.550;2023-05-16T11:42:45;101571.22;;;14.25;56.73
75740;BME280;64357;51.344;6.550;2023-05-16T11:45:16;101586.34;;;13.87;60.26
75740;BME280;64357;51.344;6.550;2023-05-16T11:47:46;101599.16;;;13.27;64.17
75740;BME280;64357;51.344;6.550;2023-05-16T11:50:19;101592.66;;;13.22;69.63
75740;BME280;64357;51.344;6.550;2023-05-16T11:52:47;101602.41;;;13.17;66.80
75740;BME280;64357;51.344;6.550;2023-05-16T11:55:13;101606.13;;;14.06;63.95
75740;BME280;64357;51.344;6.550;2023-05-16T11:57:39;101609.13;;;14.90;62.49
75740;BME280;64357;51.344;6.550;2023-05-16T12:00:17;101601.84;;;15.68;57.43
75740;BME280;64357;51.344;6.550;2023-05-16T12:02:47;101588.31;;;16.09;53.50
75740;BME280;64357;51.344;6.550;2023-05-16T12:05:14;101575.31;;;16.75;51.54
75740;BME280;64357;51.344;6.550;2023-05-16T12:07:44;101584.50;;;16.92;46.76
75740;BME280;64357;51.344;6.550;2023-05-16T12:10:15;101563.19;;;16.85;44.66
75740;BME280;64357;51.344;6.550;2023-05-16T12:12:45;101572.13;;;17.09;46.07
75740;BME280;64357;51.344;6.550;2023-05-16T12:15:20;101567.47;;;17.66;42.67
75740;BME280;64357;51.344;6.550;2023-05-16T12:17:46;101561.16;;;17.72;42.35
75740;BME280;64357;51.344;6.550;2023-05-16T12:20:15;101563.34;;;17.78;40.26
75740;BME280;64357;51.344;6.550;2023-05-16T12:22:42;101561.41;;;17.35;38.16
75740;BME280;64357;51.344;6.550;2023-05-16T12:25:30;101561.41;;;17.04;38.39
75740;BME280;64357;51.344;6.550;2023-05-16T12:28:03;101554.84;;;17.08;39.10
75740;BME280;64357;51.344;6.550;2023-05-16T12:30:31;101559.09;;;17.27;37.90
75740;BME280;64357;51.344;6.550;2023-05-16T12:35:34;101557.88;;;17.95;37.03
75740;BME280;64357;51.344;6.550;2023-05-16T12:38:08;101552.81;;;17.87;36.56
75740;BME280;64357;51.344;6.550;2023-05-16T12:40:38;101557.88;;;18.17;36.17
75740;BME280;64357;51.344;6.550;2023-05-16T12:43:04;101566.91;;;17.90;35.74
75740;BME280;64357;51.344;6.550;2023-05-16T12:45:39;101552.50;;;18.04;36.47
75740;BME280;64357;51.344;6.550;2023-05-16T12:48:11;101549.91;;;17.51;37.18
75740;BME280;64357;51.344;6.550;2023-05-16T12:50:40;101558.22;;;17.07;37.75
75740;BME280;64357;51.344;6.550;2023-05-16T12:53:15;101564.59;;;16.81;38.64
75740;BME280;64357;51.344;6.550;2023-05-16T12:55:42;101559.31;;;16.40;39.10
75740;BME280;64357;51.344;6.550;2023-05-16T12:58:08;101571.34;;;16.21;40.12
75740;BME280;64357;51.344;6.550;2023-05-16T13:00:34;101565.97;;;16.28;40.24
75740;BME280;64357;51.344;6.550;2023-05-16T13:03:00;101565.59;;;16.34;40.60
75740;BME280;64357;51.344;6.550;2023-05-16T13:05:26;101568.28;;;16.64;40.81
75740;BME280;64357;51.344;6.550;2023-05-16T13:07:51;101571.53;;;16.33;41.47
75740;BME280;64357;51.344;6.550;2023-05-16T13:10:17;101575.78;;;16.32;41.70
75740;BME280;64357;51.344;6.550;2023-05-16T13:12:43;101556.19;;;16.05;41.66
75740;BME280;64357;51.344;6.550;2023-05-16T13:15:09;101576.97;;;16.07;43.23